createdAt,value
2022-12-20T00:01:55.713Z,5.34
2022-12-20T00:04:25.663Z,5.34
2022-12-20T00:06:54.058Z,5.34
2022-12-20T00:09:22.461Z,5.33
2022-12-20T00:11:50.818Z,5.33
2022-12-20T00:14:19.690Z,5.31
2022-12-20T00:16:48.168Z,5.30
2022-12-20T00:19:16.583Z,5.29
2022-12-20T00:21:46.369Z,5.28
2022-12-20T00:24:18.135Z,5.29
2022-12-20T00:26:49.168Z,5.29
2022-12-20T00:29:17.550Z,5.30
2022-12-20T00:31:46.055Z,5.29
2022-12-20T00:34:14.534Z,5.28
2022-12-20T00:36:42.878Z,5.28
2022-12-20T00:39:12.685Z,5.28
2022-12-20T00:41:41.037Z,5.28
2022-12-20T00:44:09.404Z,5.27
2022-12-20T00:46:37.908Z,5.28
2022-12-20T00:49:07.476Z,5.28
2022-12-20T00:51:35.828Z,5.26
2022-12-20T00:54:04.281Z,5.26
2022-12-20T00:56:34.087Z,5.26
2022-12-20T00:59:02.571Z,5.27
2022-12-20T01:01:34.492Z,5.28
2022-12-20T01:04:03.462Z,5.29
2022-12-20T01:06:33.511Z,5.28
2022-12-20T01:09:02.177Z,5.29
2022-12-20T01:11:34.655Z,5.31
2022-12-20T01:14:06.696Z,5.32
2022-12-20T01:16:38.656Z,5.32
2022-12-20T01:19:08.647Z,5.32
2022-12-20T01:21:38.251Z,5.31
2022-12-20T01:24:07.013Z,5.31
2022-12-20T01:26:36.859Z,5.32
2022-12-20T01:29:05.306Z,5.33
2022-12-20T01:31:34.063Z,5.35
2022-12-20T01:34:03.153Z,5.38
2022-12-20T01:36:35.032Z,5.39
2022-12-20T01:39:08.510Z,5.38
2022-12-20T01:41:40.355Z,5.37
2022-12-20T01:44:53.256Z,5.34
2022-12-20T01:47:22.164Z,5.35
2022-12-20T01:49:56.033Z,5.36
2022-12-20T01:52:32.175Z,5.38
2022-12-20T01:55:08.630Z,5.37
2022-12-20T01:57:46.471Z,5.37
2022-12-20T02:00:17.044Z,5.38
2022-12-20T02:02:50.095Z,5.40
2022-12-20T02:05:22.884Z,5.41
2022-12-20T02:07:55.665Z,5.40
2022-12-20T02:10:35.127Z,5.38
2022-12-20T02:13:13.667Z,5.36
2022-12-20T02:15:50.989Z,5.37
2022-12-20T02:18:25.229Z,5.36
2022-12-20T02:21:23.386Z,5.36
2022-12-20T02:24:34.360Z,5.35
2022-12-20T02:27:37.564Z,5.37
2022-12-20T02:30:15.440Z,5.37
2022-12-20T02:32:52.333Z,5.39
2022-12-20T02:35:25.918Z,5.41
2022-12-20T02:37:57.011Z,5.42
2022-12-20T02:40:32.587Z,5.42
2022-12-20T02:43:26.720Z,5.42
2022-12-20T02:45:57.518Z,5.42
2022-12-20T02:48:29.548Z,5.41
2022-12-20T02:51:01.454Z,5.43
2022-12-20T02:53:30.253Z,5.44
2022-12-20T02:56:03.621Z,5.44
2022-12-20T02:58:39.430Z,5.45
2022-12-20T03:01:17.742Z,5.45
2022-12-20T03:03:46.692Z,5.45
2022-12-20T03:06:15.263Z,5.49
2022-12-20T03:08:43.830Z,5.50
2022-12-20T03:11:12.210Z,5.50
2022-12-20T03:13:40.573Z,5.51
2022-12-20T03:16:11.819Z,5.52
2022-12-20T03:18:40.455Z,5.52
2022-12-20T03:21:09.191Z,5.51
2022-12-20T03:23:37.505Z,5.53
2022-12-20T03:26:06.417Z,5.53
2022-12-20T03:28:34.768Z,5.53
2022-12-20T03:31:03.843Z,5.53
2022-12-20T03:33:33.559Z,5.53
2022-12-20T03:36:01.919Z,5.54
2022-12-20T03:38:30.284Z,5.56
2022-12-20T03:40:58.650Z,5.55
2022-12-20T03:43:27.104Z,5.56
2022-12-20T03:45:55.463Z,5.56
2022-12-20T03:48:23.856Z,5.58
2022-12-20T03:50:53.596Z,5.59
2022-12-20T03:53:22.007Z,5.59
2022-12-20T03:55:50.365Z,5.59
2022-12-20T03:58:18.750Z,5.59
2022-12-20T04:00:47.624Z,5.58
2022-12-20T04:03:16.376Z,5.58
2022-12-20T04:05:44.925Z,5.58
2022-12-20T04:08:14.668Z,5.57
2022-12-20T04:10:56.943Z,5.59
2022-12-20T04:13:25.339Z,5.59
2022-12-20T04:15:59.824Z,5.59
2022-12-20T04:18:28.965Z,5.60
2022-12-20T04:20:57.333Z,5.60
2022-12-20T04:23:27.179Z,5.61
2022-12-20T04:25:55.579Z,5.60
2022-12-20T04:28:23.990Z,5.60
2022-12-20T04:30:52.473Z,5.61
2022-12-20T04:33:20.997Z,5.63
2022-12-20T04:35:49.545Z,5.64
2022-12-20T04:38:19.023Z,5.63
2022-12-20T04:40:50.837Z,5.63
2022-12-20T04:43:19.759Z,5.63
2022-12-20T04:45:52.463Z,5.63
2022-12-20T04:48:55.179Z,5.65
2022-12-20T04:51:10.361Z,5.65
2022-12-20T04:53:49.940Z,5.65
2022-12-20T04:56:22.434Z,5.63
2022-12-20T04:58:53.694Z,5.63
2022-12-20T05:01:22.773Z,5.64
2022-12-20T05:03:51.688Z,5.65
2022-12-20T05:06:20.402Z,5.65
2022-12-20T05:08:49.265Z,5.63
2022-12-20T05:11:19.169Z,5.61
2022-12-20T05:13:47.653Z,5.62
2022-12-20T05:16:16.629Z,5.63
2022-12-20T05:18:49.191Z,5.65
2022-12-20T05:21:35.657Z,5.64
2022-12-20T05:24:32.692Z,5.63
2022-12-20T05:27:02.732Z,5.63
2022-12-20T05:29:31.211Z,5.63
2022-12-20T05:31:59.647Z,5.64
2022-12-20T05:34:28.032Z,5.65
2022-12-20T05:36:56.422Z,5.67
2022-12-20T05:39:24.779Z,5.67
2022-12-20T05:41:53.773Z,5.67
2022-12-20T05:44:23.519Z,5.67
2022-12-20T05:46:54.468Z,5.67
2022-12-20T05:49:22.914Z,5.68
2022-12-20T05:51:51.297Z,5.67
2022-12-20T05:54:19.632Z,5.68
2022-12-20T05:56:48.018Z,5.67
2022-12-20T05:59:17.864Z,5.67
2022-12-20T06:01:47.755Z,5.67
2022-12-20T06:04:16.280Z,5.68
2022-12-20T06:06:44.715Z,5.67
2022-12-20T06:09:13.172Z,5.69
2022-12-20T06:11:41.828Z,5.69
2022-12-20T06:14:10.284Z,5.69
2022-12-20T06:16:38.851Z,5.70
2022-12-20T06:19:09.143Z,5.70
2022-12-20T06:21:37.534Z,5.72
2022-12-20T06:24:06.709Z,5.73
2022-12-20T06:26:36.722Z,5.74
2022-12-20T06:29:07.229Z,5.74
2022-12-20T06:31:35.807Z,5.73
2022-12-20T06:34:04.134Z,5.72
2022-12-20T06:36:34.016Z,5.72
2022-12-20T06:39:09.202Z,5.70
2022-12-20T06:41:38.254Z,5.70
2022-12-20T06:44:06.916Z,5.69
2022-12-20T06:46:35.552Z,5.72
2022-12-20T06:49:03.985Z,5.74
2022-12-20T06:51:33.775Z,5.75
2022-12-20T06:54:02.231Z,5.79
2022-12-20T06:56:33.552Z,5.81
2022-12-20T06:59:04.512Z,5.81
2022-12-20T07:01:33.404Z,5.82
2022-12-20T07:04:01.843Z,5.82
2022-12-20T07:06:30.300Z,5.83
2022-12-20T07:09:00.143Z,5.82
2022-12-20T07:11:28.603Z,5.82
2022-12-20T07:13:57.679Z,5.82
2022-12-20T07:16:26.412Z,5.81
2022-12-20T07:18:55.607Z,5.83
2022-12-20T07:21:24.054Z,5.84
2022-12-20T07:23:55.842Z,5.85
2022-12-20T07:26:25.714Z,5.83
2022-12-20T07:28:54.553Z,5.81
2022-12-20T07:31:23.053Z,5.81
2022-12-20T07:33:51.492Z,5.81
2022-12-20T07:36:19.870Z,5.77
2022-12-20T07:38:49.131Z,5.77
2022-12-20T07:41:19.072Z,5.78
2022-12-20T07:43:49.075Z,5.81
2022-12-20T07:46:17.927Z,5.80
2022-12-20T07:48:46.574Z,5.79
2022-12-20T07:51:20.054Z,5.79
2022-12-20T07:53:54.123Z,5.81
2022-12-20T07:56:23.585Z,5.81
2022-12-20T07:58:58.616Z,5.81
2022-12-20T08:01:28.401Z,5.82
2022-12-20T08:04:03.665Z,5.85
2022-12-20T08:06:32.544Z,5.87
2022-12-20T08:09:04.228Z,5.89
2022-12-20T08:11:36.308Z,5.85
2022-12-20T08:14:08.331Z,5.90
2022-12-20T08:16:37.254Z,5.92
2022-12-20T08:19:05.819Z,5.95
2022-12-20T08:21:34.248Z,5.98
2022-12-20T08:24:02.628Z,5.99
2022-12-20T08:26:31.038Z,6.02
2022-12-20T08:28:59.580Z,6.03
2022-12-20T08:31:29.428Z,6.02
2022-12-20T08:33:57.917Z,6.05
2022-12-20T08:36:26.312Z,6.06
2022-12-20T08:38:54.835Z,6.07
2022-12-20T08:41:23.273Z,6.08
2022-12-20T08:43:51.739Z,6.09
2022-12-20T08:46:20.261Z,6.10
2022-12-20T08:48:50.164Z,6.11
2022-12-20T08:51:18.609Z,6.12
2022-12-20T08:53:47.077Z,6.09
2022-12-20T08:56:17.557Z,6.07
2022-12-20T08:58:47.350Z,6.06
2022-12-20T09:01:18.077Z,6.06
2022-12-20T09:03:47.312Z,6.08
2022-12-20T09:06:19.859Z,6.12
2022-12-20T09:08:49.250Z,6.17
2022-12-20T09:11:20.108Z,6.21
2022-12-20T09:13:51.466Z,6.23
2022-12-20T09:16:22.552Z,6.24
2022-12-20T09:18:52.017Z,6.25
2022-12-20T09:21:22.901Z,6.27
2022-12-20T09:23:53.235Z,6.26
2022-12-20T09:26:23.938Z,6.28
2022-12-20T09:28:53.987Z,6.28
2022-12-20T09:31:25.321Z,6.27
2022-12-20T09:33:55.792Z,6.26
2022-12-20T09:36:28.704Z,6.26
2022-12-20T09:38:57.994Z,6.26
2022-12-20T09:41:38.342Z,6.28
2022-12-20T09:44:15.351Z,6.24
2022-12-20T09:46:45.468Z,6.22
2022-12-20T09:49:20.214Z,6.22
2022-12-20T09:52:14.195Z,6.22
2022-12-20T09:54:54.301Z,6.24
2022-12-20T09:57:32.507Z,6.28
2022-12-20T10:00:00.980Z,6.30
2022-12-20T10:05:41.712Z,6.33
2022-12-20T10:08:25.307Z,6.36
2022-12-20T10:10:58.176Z,6.38
2022-12-20T10:13:48.711Z,6.38
2022-12-20T10:16:36.915Z,6.38
2022-12-20T10:19:27.726Z,6.38
2022-12-20T10:22:10.237Z,6.36
2022-12-20T10:24:42.391Z,6.35
2022-12-20T10:27:17.094Z,6.36
2022-12-20T10:29:46.544Z,6.36
2022-12-20T10:32:18.764Z,6.37
2022-12-20T10:34:57.054Z,6.38
2022-12-20T10:37:25.555Z,6.41
2022-12-20T10:39:55.932Z,6.44
2022-12-20T10:42:31.932Z,6.45
2022-12-20T10:45:00.574Z,6.49
2022-12-20T10:47:41.978Z,6.51
2022-12-20T10:50:19.307Z,6.49
2022-12-20T10:53:20.460Z,6.45
2022-12-20T10:55:50.852Z,6.45
2022-12-20T10:58:30.929Z,6.42
2022-12-20T11:01:13.561Z,6.40
2022-12-20T11:04:01.274Z,6.36
2022-12-20T11:06:43.528Z,6.34
2022-12-20T11:09:32.467Z,6.29
2022-12-20T11:12:06.926Z,6.25
2022-12-20T11:14:39.737Z,6.26
2022-12-20T11:17:29.488Z,6.27
2022-12-20T11:20:31.043Z,6.28
2022-12-20T11:23:18.531Z,6.30
2022-12-20T11:26:05.955Z,6.31
2022-12-20T11:28:54.721Z,6.31
2022-12-20T11:31:33.597Z,6.30
2022-12-20T11:34:18.944Z,6.29
2022-12-20T11:37:20.156Z,6.29
2022-12-20T11:40:13.132Z,6.26
2022-12-20T11:43:02.464Z,6.25
2022-12-20T11:45:40.205Z,6.28
2022-12-20T11:48:40.896Z,6.32
2022-12-20T11:51:26.018Z,6.30
2022-12-20T11:54:01.456Z,6.29
2022-12-20T11:56:43.465Z,6.29
2022-12-20T11:59:22.155Z,6.30
2022-12-20T12:02:04.251Z,6.32
2022-12-20T12:04:40.879Z,6.33
2022-12-20T12:07:17.303Z,6.31
2022-12-20T12:09:57.707Z,6.31
2022-12-20T12:12:30.141Z,6.31
2022-12-20T12:15:04.660Z,6.31
2022-12-20T12:17:43.843Z,6.34
2022-12-20T12:20:26.932Z,6.35
2022-12-20T12:23:04.483Z,6.39
2022-12-20T12:25:33.498Z,6.41
2022-12-20T12:28:03.642Z,6.41
2022-12-20T12:30:42.175Z,6.41
2022-12-20T12:33:24.404Z,6.38
2022-12-20T12:36:23.690Z,6.38
2022-12-20T12:39:27.641Z,6.32
2022-12-20T12:42:42.730Z,6.24
2022-12-20T12:45:20.889Z,6.21
2022-12-20T12:47:54.773Z,6.20
2022-12-20T12:50:29.474Z,6.22
2022-12-20T12:53:04.673Z,6.24
2022-12-20T12:55:45.920Z,6.24
2022-12-20T12:58:36.198Z,6.22
2022-12-20T13:01:10.873Z,6.23
2022-12-20T13:04:08.621Z,6.24
2022-12-20T13:07:21.383Z,6.24
2022-12-20T13:09:49.958Z,6.25
2022-12-20T13:13:00.007Z,6.24
2022-12-20T13:16:05.554Z,6.23
2022-12-20T13:18:34.101Z,6.22
2022-12-20T13:21:48.621Z,6.17
2022-12-20T13:24:57.202Z,6.13
2022-12-20T13:27:39.069Z,6.13
2022-12-20T13:30:29.802Z,6.13
2022-12-20T13:33:39.187Z,6.18
2022-12-20T13:36:37.340Z,6.20
2022-12-20T13:39:35.275Z,6.20
2022-12-20T13:42:28.985Z,6.22
2022-12-20T13:44:58.085Z,6.26
2022-12-20T13:47:41.908Z,6.28
2022-12-20T13:50:38.740Z,6.30
2022-12-20T13:53:08.168Z,6.32
2022-12-20T13:55:42.615Z,6.34
2022-12-20T13:58:19.948Z,6.35
2022-12-20T14:00:49.530Z,6.37
2022-12-20T14:03:29.500Z,6.38
2022-12-20T14:06:02.382Z,6.41
2022-12-20T14:08:35.053Z,6.41
2022-12-20T14:11:12.741Z,6.40
2022-12-20T14:13:43.575Z,6.40
2022-12-20T14:16:17.963Z,6.38
2022-12-20T14:18:50.811Z,6.38
2022-12-20T14:21:20.041Z,6.38
2022-12-20T14:23:51.816Z,6.38
2022-12-20T14:26:25.142Z,6.36
2022-12-20T14:28:57.416Z,6.35
2022-12-20T14:31:29.136Z,6.36
2022-12-20T14:34:06.801Z,6.36
2022-12-20T14:36:36.198Z,6.35
2022-12-20T14:39:28.736Z,6.32
2022-12-20T14:41:59.821Z,6.30
2022-12-20T14:44:32.339Z,6.29
2022-12-20T14:47:02.771Z,6.29
2022-12-20T14:49:34.087Z,6.28
2022-12-20T14:52:17.892Z,6.27
2022-12-20T14:55:09.511Z,6.27
2022-12-20T14:57:48.738Z,6.25
2022-12-20T15:00:25.501Z,6.23
2022-12-20T15:03:02.782Z,6.21
2022-12-20T15:05:48.687Z,6.20
2022-12-20T15:08:21.961Z,6.19
2022-12-20T15:11:01.151Z,6.16
2022-12-20T15:13:33.800Z,6.17
2022-12-20T15:16:06.847Z,6.14
2022-12-20T15:18:35.380Z,6.14
2022-12-20T15:21:07.952Z,6.13
2022-12-20T15:23:36.967Z,6.14
2022-12-20T15:26:05.603Z,6.13
2022-12-20T15:28:34.564Z,6.14
2022-12-20T15:31:05.825Z,6.15
2022-12-20T15:33:36.459Z,6.14
2022-12-20T15:36:05.033Z,6.12
2022-12-20T15:39:10.839Z,6.11
2022-12-20T15:41:25.783Z,6.10
2022-12-20T15:43:58.496Z,6.13
2022-12-20T15:46:28.782Z,6.15
2022-12-20T15:48:57.285Z,6.17
2022-12-20T15:51:31.573Z,6.18
2022-12-20T15:54:01.990Z,6.18
2022-12-20T15:56:31.007Z,6.17
2022-12-20T15:58:59.473Z,6.15
2022-12-20T16:01:40.870Z,6.16
2022-12-20T16:04:15.693Z,6.19
2022-12-20T16:06:44.949Z,6.18
2022-12-20T16:09:13.675Z,6.18
2022-12-20T16:11:43.640Z,6.18
2022-12-20T16:14:17.257Z,6.17
2022-12-20T16:16:48.841Z,6.17
2022-12-20T16:19:17.685Z,6.22
2022-12-20T16:21:49.817Z,6.23
2022-12-20T16:24:20.530Z,6.24
2022-12-20T16:26:50.404Z,6.25
2022-12-20T16:29:18.840Z,6.25
2022-12-20T16:31:48.783Z,6.26
2022-12-20T16:34:20.627Z,6.26
2022-12-20T16:36:49.303Z,6.27
2022-12-20T16:39:17.741Z,6.26
2022-12-20T16:41:46.279Z,6.26
2022-12-20T16:44:17.441Z,6.23
2022-12-20T16:46:47.267Z,6.23
2022-12-20T16:49:20.425Z,6.22
2022-12-20T16:51:50.915Z,6.21
2022-12-20T16:54:22.325Z,6.20
2022-12-20T16:56:55.539Z,6.20
2022-12-20T16:59:24.395Z,6.21
2022-12-20T17:01:57.714Z,6.22
2022-12-20T17:04:27.381Z,6.23
2022-12-20T17:06:55.823Z,6.22
2022-12-20T17:09:24.250Z,6.22
2022-12-20T17:11:52.752Z,6.24
2022-12-20T17:14:21.191Z,6.23
2022-12-20T17:16:49.772Z,6.23
2022-12-20T17:19:19.622Z,6.22
2022-12-20T17:24:35.426Z,6.21
2022-12-20T17:27:04.465Z,6.20
2022-12-20T17:29:32.933Z,6.20
2022-12-20T17:32:03.061Z,6.22
2022-12-20T17:34:32.878Z,6.22
2022-12-20T17:37:01.306Z,6.23
2022-12-20T17:39:29.743Z,6.24
2022-12-20T17:41:58.149Z,6.25
2022-12-20T17:44:29.260Z,6.26
2022-12-20T17:46:58.742Z,6.30
2022-12-20T17:49:27.273Z,6.30
2022-12-20T17:51:57.171Z,6.30
2022-12-20T17:54:32.088Z,6.30
2022-12-20T17:57:05.265Z,6.30
2022-12-20T17:59:33.743Z,6.29
2022-12-20T18:02:02.352Z,6.30
2022-12-20T18:04:31.106Z,6.30
2022-12-20T18:07:02.274Z,6.31
2022-12-20T18:09:30.745Z,6.31
2022-12-20T18:11:59.343Z,6.31
2022-12-20T18:14:28.019Z,6.29
2022-12-20T18:16:56.689Z,6.31
2022-12-20T18:19:25.399Z,6.30
2022-12-20T18:21:53.899Z,6.29
2022-12-20T18:24:23.742Z,6.30
2022-12-20T18:26:52.183Z,6.30
2022-12-20T18:29:21.104Z,6.29
2022-12-20T18:31:50.311Z,6.29
2022-12-20T18:34:19.090Z,6.27
2022-12-20T18:36:48.043Z,6.25
2022-12-20T18:39:17.766Z,6.25
2022-12-20T18:41:52.214Z,6.24
2022-12-20T18:44:21.254Z,6.24
2022-12-20T18:46:50.417Z,6.24
2022-12-20T18:49:19.148Z,6.25
2022-12-20T18:51:47.850Z,6.25
2022-12-20T18:54:16.877Z,6.24
2022-12-20T18:56:47.826Z,6.23
2022-12-20T18:59:16.297Z,6.23
2022-12-20T19:01:45.051Z,6.23
2022-12-20T19:04:17.969Z,6.22
2022-12-20T19:06:50.097Z,6.24
2022-12-20T19:09:19.061Z,6.25
2022-12-20T19:11:56.196Z,6.25
2022-12-20T19:14:25.508Z,6.25
2022-12-20T19:16:54.121Z,6.27
2022-12-20T19:19:22.967Z,6.28
2022-12-20T19:21:54.858Z,6.30
2022-12-20T19:24:24.088Z,6.30
2022-12-20T19:26:54.230Z,6.30
2022-12-20T19:29:24.186Z,6.29
2022-12-20T19:31:53.731Z,6.28
2022-12-20T19:34:22.460Z,6.27
2022-12-20T19:36:52.155Z,6.27
2022-12-20T19:39:23.610Z,6.26
2022-12-20T19:42:22.470Z,6.26
2022-12-20T19:44:42.862Z,6.24
2022-12-20T19:47:13.448Z,6.24
2022-12-20T19:49:42.331Z,6.25
2022-12-20T19:52:11.726Z,6.26
2022-12-20T19:54:42.984Z,6.25
2022-12-20T19:57:13.130Z,6.23
2022-12-20T19:59:41.561Z,6.23
2022-12-20T20:02:13.804Z,6.23
2022-12-20T20:04:45.571Z,6.22
2022-12-20T20:07:14.404Z,6.22
2022-12-20T20:09:46.066Z,6.23
2022-12-20T20:12:16.167Z,6.21
2022-12-20T20:14:45.883Z,6.21
2022-12-20T20:17:14.595Z,6.20
2022-12-20T20:19:44.101Z,6.19
2022-12-20T20:22:20.865Z,6.19
2022-12-20T20:24:54.064Z,6.18
2022-12-20T20:27:24.220Z,6.19
2022-12-20T20:29:52.801Z,6.21
2022-12-20T20:32:22.841Z,6.22
2022-12-20T20:34:51.677Z,6.22
2022-12-20T20:37:20.754Z,6.21
2022-12-20T20:39:49.860Z,6.23
2022-12-20T20:42:23.191Z,6.25
2022-12-20T20:44:54.426Z,6.23
2022-12-20T20:47:23.325Z,6.24
2022-12-20T20:49:52.829Z,6.26
2022-12-20T20:52:22.139Z,6.25
2022-12-20T20:54:50.993Z,6.24
2022-12-20T20:57:19.743Z,6.24
2022-12-20T20:59:48.302Z,6.25
2022-12-20T21:02:20.937Z,6.25
2022-12-20T21:05:07.429Z,6.27
2022-12-20T21:07:38.404Z,6.26
2022-12-20T21:10:09.167Z,6.26
2022-12-20T21:12:37.709Z,6.27
2022-12-20T21:15:24.623Z,6.27
2022-12-20T21:17:54.784Z,6.26
2022-12-20T21:20:26.290Z,6.26
2022-12-20T21:22:55.178Z,6.25
2022-12-20T21:25:23.704Z,6.23
2022-12-20T21:27:52.095Z,6.25
2022-12-20T21:30:21.124Z,6.24
2022-12-20T21:32:49.555Z,6.26
2022-12-20T21:35:19.411Z,6.26
2022-12-20T21:37:47.805Z,6.28
2022-12-20T21:40:16.524Z,6.28
2022-12-20T21:42:45.561Z,6.28
2022-12-20T21:45:14.139Z,6.27
2022-12-20T21:47:42.555Z,6.28
2022-12-20T21:50:14.250Z,6.29
2022-12-20T21:52:44.015Z,6.29
2022-12-20T21:55:12.489Z,6.28
2022-12-20T21:57:41.180Z,6.29
2022-12-20T22:00:12.134Z,6.30
2022-12-20T22:02:40.635Z,6.31
2022-12-20T22:05:10.597Z,6.30
2022-12-20T22:07:39.035Z,6.31
2022-12-20T22:10:10.774Z,6.33
2022-12-20T22:12:39.176Z,6.33
2022-12-20T22:15:09.652Z,6.32
2022-12-20T22:17:38.059Z,6.34
2022-12-20T22:20:08.874Z,6.34
2022-12-20T22:22:37.287Z,6.34
2022-12-20T22:25:06.547Z,6.35
2022-12-20T22:27:36.407Z,6.33
2022-12-20T22:30:05.891Z,6.32
2022-12-20T22:32:34.318Z,6.33
2022-12-20T22:35:02.724Z,6.34
2022-12-20T22:37:31.155Z,6.33
2022-12-20T22:39:59.547Z,6.33
2022-12-20T22:42:28.727Z,6.34
2022-12-20T22:44:58.519Z,6.33
2022-12-20T22:50:13.232Z,6.32
2022-12-20T22:52:41.537Z,6.31
2022-12-20T22:55:11.306Z,6.30
2022-12-20T22:57:39.618Z,6.30
2022-12-20T23:00:13.285Z,6.31
2022-12-20T23:02:42.060Z,6.32
2022-12-20T23:05:11.220Z,6.32
2022-12-20T23:07:39.621Z,6.33
2022-12-20T23:10:29.586Z,6.34
2022-12-20T23:13:15.609Z,6.33
2022-12-20T23:15:47.732Z,6.30
2022-12-20T23:18:16.112Z,6.27
2022-12-20T23:21:07.485Z,6.24
2022-12-20T23:23:35.827Z,6.21
2022-12-20T23:26:11.386Z,6.19
2022-12-20T23:28:39.772Z,6.17
2022-12-20T23:31:10.681Z,6.19
2022-12-20T23:33:39.355Z,6.21
2022-12-20T23:36:09.016Z,6.23
2022-12-20T23:38:39.109Z,6.25
2022-12-20T23:41:12.234Z,6.24
2022-12-20T23:43:40.747Z,6.27
2022-12-20T23:46:13.805Z,6.28
2022-12-20T23:48:42.869Z,6.28
2022-12-20T23:51:11.927Z,6.28
2022-12-20T23:53:40.683Z,6.27
2022-12-20T23:56:12.925Z,6.26
2022-12-20T23:58:41.842Z,6.26
